Time;durP1;ratioP1;P1;durP2;ratioP2;P2;SDS_P1;SDS_P2;PMS_P1;PMS_P2;Temp;Humidity;BMP_temperature;BMP_pressure;BME280_temperature;BME280_humidity;BME280_pressure;Samples;Min_cycle;Max_cycle;Signal;HPM_P1;HPM_P2
2023/11/09 00:01:11;;;;;;;4.10;3.80;;;8.70;24.80;;;;;;5121024;27;20023;-75
2023/11/09 00:03:37;;;;;;;4.43;4.03;;;8.60;26.80;;;;;;5120645;27;20479;-75
2023/11/09 00:06:03;;;;;;;4.43;4.07;;;8.60;30.60;;;;;;5123508;27;20030;-75
2023/11/09 00:08:32;;;;;;;4.30;3.90;;;8.50;34.10;;;;;;5121809;27;20078;-75
2023/11/09 00:10:58;;;;;;;4.85;3.58;;;8.50;35.70;;;;;;5121662;27;20023;-75
2023/11/09 00:13:24;;;;;;;4.20;3.70;;;8.50;34.30;;;;;;5123763;27;20553;-75
2023/11/09 00:15:49;;;;;;;5.45;3.88;;;8.50;31.20;;;;;;5115931;27;20106;-75
2023/11/09 00:18:21;;;;;;;4.57;4.15;;;8.50;29.20;;;;;;5120113;27;20455;-74
2023/11/09 00:20:51;;;;;;;4.30;3.83;;;8.60;24.80;;;;;;5119593;27;20551;-75
2023/11/09 00:23:21;;;;;;;4.60;3.78;;;8.60;24.50;;;;;;5102034;28;20023;-75
2023/11/09 00:25:47;;;;;;;4.30;3.85;;;8.60;21.70;;;;;;5103904;28;20068;-75
2023/11/09 00:28:16;;;;;;;6.32;3.92;;;8.60;20.80;;;;;;5104384;28;20057;-75
2023/11/09 00:30:43;;;;;;;4.38;3.97;;;8.60;18.00;;;;;;5105236;28;20030;-75
2023/11/09 00:33:10;;;;;;;5.00;3.88;;;8.60;21.90;;;;;;5101292;28;20027;-75
2023/11/09 00:35:36;;;;;;;6.65;4.43;;;8.60;23.60;;;;;;5121667;28;20046;-75
2023/11/09 00:38:04;;;;;;;6.97;4.00;;;8.70;25.10;;;;;;5103015;28;20024;-75
2023/11/09 00:40:30;;;;;;;5.22;4.57;;;8.60;26.60;;;;;;5123700;28;20058;-75
2023/11/09 00:42:56;;;;;;;5.88;4.20;;;8.60;30.00;;;;;;5120808;28;20051;-74
2023/11/09 00:45:21;;;;;;;5.47;4.15;;;8.50;37.50;;;;;;5122398;28;20426;-75
2023/11/09 00:47:48;;;;;;;4.80;4.35;;;8.50;41.30;;;;;;5118546;28;20509;-75
2023/11/09 00:50:14;;;;;;;4.35;3.92;;;8.50;39.00;;;;;;5121382;28;20043;-75
2023/11/09 00:52:40;;;;;;;5.70;4.47;;;8.50;34.80;;;;;;5123415;28;20086;-75
2023/11/09 00:55:07;;;;;;;6.18;4.22;;;8.50;36.40;;;;;;5102591;28;20073;-75
2023/11/09 00:57:33;;;;;;;3.78;3.47;;;8.50;32.50;;;;;;5105810;28;20019;-75
2023/11/09 00:59:59;;;;;;;3.97;3.67;;;8.50;26.40;;;;;;5108449;27;20371;-75
2023/11/09 01:02:25;;;;;;;4.03;3.72;;;8.50;25.30;;;;;;5124009;27;20034;-75
2023/11/09 01:04:51;;;;;;;3.85;3.42;;;8.60;26.60;;;;;;5127141;27;20076;-75
2023/11/09 01:07:17;;;;;;;3.10;2.83;;;8.50;25.80;;;;;;5106769;27;20027;-75
2023/11/09 01:09:45;;;;;;;7.65;3.80;;;8.60;28.00;;;;;;5125448;27;20202;-75
2023/11/09 01:12:11;;;;;;;4.75;3.63;;;8.50;27.30;;;;;;5108899;27;20111;-75
2023/11/09 01:14:37;;;;;;;4.65;3.15;;;8.60;25.40;;;;;;5101660;27;20020;-75
2023/11/09 01:17:04;;;;;;;3.42;3.10;;;8.50;25.60;;;;;;5126182;27;20076;-75
2023/11/09 01:19:30;;;;;;;3.05;2.80;;;8.50;22.00;;;;;;5123243;27;20466;-75
2023/11/09 01:21:56;;;;;;;6.32;2.92;;;8.50;21.40;;;;;;5126511;27;20015;-75
2023/11/09 01:24:22;;;;;;;3.70;3.40;;;8.50;18.40;;;;;;5123190;27;20015;-75
2023/11/09 01:26:48;;;;;;;3.85;3.25;;;8.60;22.30;;;;;;5127795;27;20245;-75
2023/11/09 01:29:13;;;;;;;3.53;3.22;;;8.50;16.20;;;;;;5125779;27;20038;-75
2023/11/09 01:31:40;;;;;;;3.63;3.00;;;8.50;18.20;;;;;;5125683;27;20035;-75
2023/11/09 01:34:06;;;;;;;3.72;2.95;;;8.50;18.40;;;;;;5105536;28;20034;-75
2023/11/09 01:36:32;;;;;;;4.10;2.78;;;8.50;18.10;;;;;;5126705;27;20027;-75
2023/11/09 01:38:58;;;;;;;3.38;3.17;;;8.50;21.80;;;;;;5124286;27;20388;-75
2023/11/09 01:41:23;;;;;;;3.28;2.97;;;8.50;22.40;;;;;;5106845;27;20051;-75
2023/11/09 01:44:00;;;;;;;3.67;3.30;;;8.50;23.30;;;;;;5125721;27;20033;-75
2023/11/09 01:46:27;;;;;;;4.25;3.40;;;8.50;22.40;;;;;;5120978;27;20077;-75
2023/11/09 01:48:55;;;;;;;3.60;2.95;;;8.50;24.70;;;;;;5124686;27;20502;-75
2023/11/09 01:51:22;;;;;;;5.70;3.05;;;8.40;21.20;;;;;;5104681;27;20213;-75
2023/11/09 01:53:48;;;;;;;3.28;3.00;;;8.50;25.80;;;;;;5123254;27;20028;-75
2023/11/09 01:56:14;;;;;;;6.30;3.47;;;8.40;25.60;;;;;;5127465;27;20031;-75
2023/11/09 01:58:44;;;;;;;5.00;3.70;;;8.40;29.40;;;;;;5124708;27;20079;-75
2023/11/09 02:01:13;;;;;;;3.47;3.17;;;8.40;29.20;;;;;;5125372;27;20051;-74
2023/11/09 02:03:42;;;;;;;4.25;3.67;;;8.40;31.40;;;;;;5101357;27;20114;-75
2023/11/09 02:06:09;;;;;;;4.00;3.70;;;8.40;33.40;;;;;;5124300;27;20023;-75
2023/11/09 02:08:36;;;;;;;5.55;3.15;;;8.40;34.10;;;;;;5103712;28;20050;-75
2023/11/09 02:11:02;;;;;;;4.38;3.97;;;8.40;34.50;;;;;;5125947;27;20076;-75
2023/11/09 02:13:28;;;;;;;3.85;3.55;;;8.40;29.40;;;;;;5123348;27;20023;-75
2023/11/09 02:15:55;;;;;;;5.07;4.60;;;8.50;27.50;;;;;;5124528;27;20069;-75
2023/11/09 02:18:22;;;;;;;7.35;3.83;;;8.40;29.80;;;;;;5125231;27;20027;-75
2023/11/09 02:20:52;;;;;;;4.63;4.15;;;8.50;30.70;;;;;;5106436;27;20390;-75
2023/11/09 02:23:20;;;;;;;4.45;3.72;;;8.40;29.60;;;;;;5105017;27;20443;-74
2023/11/09 02:25:47;;;;;;;4.05;3.67;;;8.40;30.60;;;;;;5123770;27;20030;-75
2023/11/09 02:28:14;;;;;;;3.80;3.50;;;8.40;36.50;;;;;;5107051;27;20026;-75
2023/11/09 02:30:39;;;;;;;3.97;3.58;;;8.50;36.60;;;;;;5122578;27;20028;-75
2023/11/09 02:33:08;;;;;;;4.75;4.25;;;8.40;39.20;;;;;;5124988;27;20069;-75
2023/11/09 02:35:33;;;;;;;6.57;4.22;;;8.40;44.50;;;;;;5124102;27;20031;-75
2023/11/09 02:37:59;;;;;;;4.13;3.83;;;8.50;39.50;;;;;;5122854;27;20036;-76
2023/11/09 02:40:25;;;;;;;4.70;3.92;;;8.50;39.30;;;;;;5103082;28;20127;-75
2023/11/09 02:42:51;;;;;;;4.40;4.00;;;8.40;31.80;;;;;;5106632;27;20474;-75
2023/11/09 02:45:17;;;;;;;4.80;4.32;;;8.50;24.10;;;;;;5105215;27;20074;-75
2023/11/09 02:47:43;;;;;;;4.40;3.70;;;8.50;26.80;;;;;;5126263;27;20028;-75
2023/11/09 02:50:09;;;;;;;5.32;3.72;;;8.50;27.50;;;;;;5103560;27;20019;-75
2023/11/09 02:52:35;;;;;;;4.13;3.80;;;8.50;25.40;;;;;;5119970;27;20050;-75
2023/11/09 02:55:00;;;;;;;3.55;3.25;;;8.50;25.50;;;;;;5124619;27;20019;-75
2023/11/09 02:57:27;;;;;;;6.25;3.85;;;8.50;29.10;;;;;;5105282;27;20026;-75
2023/11/09 02:59:54;;;;;;;4.30;3.90;;;8.50;29.10;;;;;;5119990;27;20054;-75
2023/11/09 03:02:20;;;;;;;6.13;3.92;;;8.50;33.50;;;;;;5106789;27;20062;-75
2023/11/09 03:04:47;;;;;;;4.13;3.83;;;8.50;35.10;;;;;;5103657;27;20387;-75
2023/11/09 03:07:13;;;;;;;4.13;3.83;;;8.50;34.60;;;;;;5123669;27;20015;-75
2023/11/09 03:09:40;;;;;;;6.55;4.13;;;8.40;37.80;;;;;;5105464;27;20023;-75
2023/11/09 03:12:07;;;;;;;4.38;4.00;;;8.40;41.00;;;;;;5103360;28;20497;-75
2023/11/09 03:14:36;;;;;;;4.53;3.95;;;8.50;40.60;;;;;;5118020;27;20486;-75
2023/11/09 03:17:10;;;;;;;4.70;3.85;;;8.50;36.00;;;;;;5123448;27;20019;-75
2023/11/09 03:19:37;;;;;;;4.13;3.78;;;8.40;36.00;;;;;;5120855;27;20031;-75
2023/11/09 03:22:07;;;;;;;4.20;3.90;;;8.40;36.30;;;;;;5121624;27;20059;-75
2023/11/09 03:24:33;;;;;;;4.40;4.05;;;8.40;35.30;;;;;;5104592;27;20084;-75
2023/11/09 03:27:02;;;;;;;8.27;3.72;;;8.40;35.30;;;;;;5105893;27;20030;-75
2023/11/09 03:29:28;;;;;;;4.00;3.70;;;8.40;35.70;;;;;;5116672;27;20020;-76
2023/11/09 03:31:54;;;;;;;3.92;3.58;;;8.40;34.50;;;;;;5120181;27;20030;-75
2023/11/09 03:34:19;;;;;;;3.83;3.53;;;8.40;36.30;;;;;;5122926;27;20015;-75
2023/11/09 03:36:45;;;;;;;3.88;3.58;;;8.30;33.30;;;;;;5121781;27;20027;-75
2023/11/09 03:39:11;;;;;;;3.83;2.85;;;8.30;41.70;;;;;;5106117;27;20079;-75
2023/11/09 03:41:36;;;;;;;3.78;3.47;;;8.30;40.90;;;;;;5121238;27;20020;-75
2023/11/09 03:44:02;;;;;;;4.15;3.83;;;8.20;44.70;;;;;;5104996;27;20122;-75
2023/11/09 03:46:28;;;;;;;3.50;3.20;;;8.30;46.40;;;;;;5122871;27;20022;-75
2023/11/09 03:48:53;;;;;;;4.03;3.13;;;8.20;41.20;;;;;;5121745;27;20030;-74
2023/11/09 03:51:19;;;;;;;3.60;3.10;;;8.20;38.00;;;;;;5121616;27;20070;-75
2023/11/09 03:53:45;;;;;;;3.00;2.80;;;8.20;29.20;;;;;;5102748;27;20743;-75
2023/11/09 03:56:11;;;;;;;3.35;3.05;;;8.20;31.90;;;;;;5125018;27;20020;-75
2023/11/09 03:58:37;;;;;;;6.47;3.53;;;8.30;34.30;;;;;;5103885;28;20042;-75
2023/11/09 04:01:02;;;;;;;3.10;2.80;;;8.20;29.60;;;;;;5104961;27;20474;-75
2023/11/09 04:03:28;;;;;;;5.72;3.03;;;8.20;31.00;;;;;;5120692;27;20439;-75
2023/11/09 04:05:54;;;;;;;2.60;2.38;;;8.20;29.50;;;;;;5123376;27;20023;-75
2023/11/09 04:08:19;;;;;;;3.97;2.50;;;8.20;24.60;;;;;;5103632;27;20042;-75
2023/11/09 04:10:46;;;;;;;4.25;2.42;;;8.20;23.70;;;;;;5121984;27;20474;-75
2023/11/09 04:13:13;;;;;;;3.70;2.65;;;8.20;23.50;;;;;;5123564;27;20057;-75
2023/11/09 04:15:40;;;;;;;3.05;2.83;;;8.20;23.10;;;;;;5120481;27;20016;-75
2023/11/09 04:18:06;;;;;;;3.33;2.55;;;8.30;26.30;;;;;;5122886;27;20019;-75
2023/11/09 04:20:32;;;;;;;4.40;2.72;;;8.20;25.30;;;;;;5101395;28;20503;-75
2023/11/09 04:22:58;;;;;;;4.65;2.33;;;8.20;24.00;;;;;;5101371;28;20054;-75
2023/11/09 04:25:24;;;;;;;4.10;2.75;;;8.20;27.10;;;;;;5123818;28;20031;-75
2023/11/09 04:27:51;;;;;;;3.33;2.90;;;8.20;23.70;;;;;;5102648;28;20365;-75
2023/11/09 04:30:20;;;;;;;3.38;2.58;;;8.30;21.80;;;;;;5105695;27;20115;-75
2023/11/09 04:32:46;;;;;;;3.53;2.70;;;8.30;15.60;;;;;;5127232;27;20034;-75
2023/11/09 04:35:12;;;;;;;4.35;3.08;;;8.30;12.30;;;;;;5106263;27;20426;-75
2023/11/09 04:37:38;;;;;;;2.50;2.30;;;8.40;14.00;;;;;;5109045;27;20038;-75
2023/11/09 04:40:27;;;;;;;4.38;2.88;;;8.40;16.60;;;;;;5125935;27;20027;-75
2023/11/09 04:42:56;;;;;;;5.57;2.58;;;8.40;10.60;;;;;;5123546;27;20047;-75
2023/11/09 04:45:22;;;;;;;5.43;2.72;;;8.40;10.70;;;;;;5106592;28;20495;-75
2023/11/09 04:47:55;;;;;;;3.50;2.65;;;8.40;16.00;;;;;;5125983;27;20019;-75
2023/11/09 04:50:28;;;;;;;2.67;2.50;;;8.30;21.90;;;;;;5126228;27;20064;-75
2023/11/09 04:53:29;;;;;;;3.85;2.75;;;8.30;22.70;;;;;;5127490;27;20043;-75
2023/11/09 04:55:57;;;;;;;10.00;3.75;;;8.30;18.00;;;;;;5120990;27;20031;-75
2023/11/09 05:06:52;;;;;;;2.80;2.60;;;8.30;26.40;;;;;;5121426;27;20043;-75
2023/11/09 05:09:24;;;;;;;2.53;2.33;;;8.30;31.40;;;;;;5105786;27;20043;-75
2023/11/09 05:11:52;;;;;;;3.88;2.65;;;8.20;37.90;;;;;;5125556;27;20019;-75
2023/11/09 05:14:18;;;;;;;4.03;3.00;;;8.20;42.80;;;;;;5108662;27;20073;-75
2023/11/09 05:16:44;;;;;;;5.70;2.88;;;8.20;46.70;;;;;;5123546;27;20024;-75
2023/11/09 05:19:11;;;;;;;5.72;3.17;;;8.30;50.20;;;;;;5124450;27;20110;-75
2023/11/09 05:21:37;;;;;;;2.88;2.67;;;8.30;51.80;;;;;;5104566;27;20027;-75
2023/11/09 05:24:03;;;;;;;4.95;3.28;;;8.20;50.60;;;;;;5106415;27;20027;-75
2023/11/09 05:26:32;;;;;;;4.00;2.80;;;8.20;55.90;;;;;;5126977;27;20027;-75
2023/11/09 05:28:59;;;;;;;5.10;3.10;;;8.20;55.70;;;;;;5118366;27;20027;-76
2023/11/09 05:31:24;;;;;;;3.15;2.95;;;8.20;56.00;;;;;;5124615;27;20026;-75
2023/11/09 05:33:56;;;;;;;4.13;3.20;;;8.20;51.70;;;;;;5125798;27;20027;-75
2023/11/09 05:36:22;;;;;;;3.50;3.03;;;8.10;55.90;;;;;;5105126;27;20038;-75
2023/11/09 05:38:48;;;;;;;4.85;3.50;;;8.10;61.90;;;;;;5107620;27;20011;-75
2023/11/09 05:41:15;;;;;;;6.43;3.40;;;8.10;66.00;;;;;;5106286;28;20080;-75
2023/11/09 05:43:41;;;;;;;6.68;3.38;;;8.00;63.90;;;;;;5105486;28;20054;-75
2023/11/09 05:46:07;;;;;;;3.17;2.85;;;8.10;66.50;;;;;;5108079;27;20055;-75
2023/11/09 05:48:32;;;;;;;4.38;3.25;;;8.10;65.10;;;;;;5105409;27;20019;-75
2023/11/09 05:50:58;;;;;;;3.05;2.70;;;8.10;67.30;;;;;;5106838;27;20026;-75
2023/11/09 05:53:26;;;;;;;3.47;3.17;;;8.00;73.10;;;;;;5107075;27;20414;-75
2023/11/09 05:55:52;;;;;;;3.13;2.85;;;8.00;73.20;;;;;;5123431;27;20023;-75
2023/11/09 05:58:18;;;;;;;4.45;3.20;;;8.00;75.20;;;;;;5118895;27;20387;-75
2023/11/09 06:00:44;;;;;;;4.72;3.10;;;8.00;76.30;;;;;;5121821;27;20023;-75
2023/11/09 06:03:10;;;;;;;7.35;3.38;;;8.00;80.20;;;;;;5124617;27;20114;-75
2023/11/09 06:05:39;;;;;;;6.90;3.08;;;8.00;82.40;;;;;;5108465;27;20557;-75
2023/11/09 06:08:08;;;;;;;5.53;3.10;;;8.00;81.30;;;;;;5122953;27;20015;-75
2023/11/09 06:10:34;;;;;;;6.25;2.92;;;8.00;86.50;;;;;;5125160;27;20056;-75
2023/11/09 06:13:00;;;;;;;10.77;3.20;;;8.00;84.70;;;;;;5124618;27;20055;-75
2023/11/09 06:15:26;;;;;;;3.67;3.25;;;8.00;87.00;;;;;;5122284;27;20038;-75
2023/11/09 06:17:52;;;;;;;6.40;2.97;;;8.00;89.50;;;;;;5120020;27;20024;-75
2023/11/09 06:20:20;;;;;;;7.30;3.28;;;8.00;90.00;;;;;;5125222;27;20026;-75
2023/11/09 06:22:45;;;;;;;4.53;3.40;;;8.00;88.90;;;;;;5104069;27;20016;-75
2023/11/09 06:25:12;;;;;;;7.80;3.58;;;8.10;85.80;;;;;;5096294;28;20023;-75
2023/11/09 06:27:38;;;;;;;4.72;2.92;;;8.10;89.70;;;;;;5104186;27;20020;-75
2023/11/09 06:30:07;;;;;;;8.75;3.95;;;8.20;85.40;;;;;;5121240;27;20020;-75
2023/11/09 06:32:33;;;;;;;5.68;3.60;;;8.10;90.20;;;;;;5118765;27;20460;-75
2023/11/09 06:35:01;;;;;;;3.47;2.97;;;8.10;91.60;;;;;;5104025;27;20180;-75
2023/11/09 06:37:27;;;;;;;6.00;3.30;;;8.20;90.70;;;;;;5121823;27;20084;-75
2023/11/09 06:39:58;;;;;;;3.85;3.42;;;8.20;89.80;;;;;;5104223;27;20043;-75
2023/11/09 06:42:24;;;;;;;3.03;2.83;;;8.30;88.30;;;;;;5122925;27;20023;-75
2023/11/09 06:44:51;;;;;;;6.75;3.40;;;8.40;88.00;;;;;;5124955;27;20027;-75
2023/11/09 06:47:17;;;;;;;6.20;3.53;;;8.40;90.10;;;;;;5122186;27;20027;-75
2023/11/09 06:49:42;;;;;;;5.80;4.82;;;8.50;90.00;;;;;;5104737;27;20028;-75
2023/11/09 06:52:09;;;;;;;5.63;4.40;;;8.50;93.90;;;;;;5105163;27;20086;-75
2023/11/09 06:54:35;;;;;;;8.50;4.50;;;8.50;92.40;;;;;;5105023;27;20123;-75
2023/11/09 06:57:02;;;;;;;7.93;4.93;;;8.50;96.10;;;;;;5103492;28;20453;-75
2023/11/09 06:59:28;;;;;;;7.35;5.75;;;8.50;96.80;;;;;;5105688;27;20018;-75
2023/11/09 07:01:55;;;;;;;6.30;5.65;;;8.60;99.40;;;;;;5123921;27;20030;-75
2023/11/09 07:04:23;;;;;;;6.60;5.55;;;8.50;99.80;;;;;;5119184;27;20012;-75
2023/11/09 07:06:49;;;;;;;9.38;6.07;;;8.50;99.90;;;;;;5105414;27;20030;-75
2023/11/09 07:09:15;;;;;;;5.25;4.75;;;8.60;99.90;;;;;;5102512;27;20063;-75
2023/11/09 07:11:42;;;;;;;9.45;5.13;;;8.60;99.90;;;;;;5123102;27;20652;-75
2023/11/09 07:14:10;;;;;;;8.00;5.22;;;8.70;99.10;;;;;;5104541;27;20020;-75
2023/11/09 07:16:36;;;;;;;5.60;4.88;;;8.70;99.40;;;;;;5120833;27;20051;-75
2023/11/09 07:19:02;;;;;;;6.10;4.85;;;8.70;96.70;;;;;;5116974;27;20035;-75
2023/11/09 07:21:27;;;;;;;5.97;4.40;;;8.80;95.90;;;;;;5121382;27;20027;-75
2023/11/09 07:23:59;;;;;;;7.93;4.55;;;8.80;95.60;;;;;;5123160;27;20031;-75
2023/11/09 07:26:30;;;;;;;5.82;5.25;;;8.90;96.70;;;;;;5121383;27;20034;-76
2023/11/09 07:28:56;;;;;;;7.43;4.90;;;9.00;95.60;;;;;;5104027;27;20031;-75
2023/11/09 07:31:22;;;;;;;6.88;5.03;;;9.00;95.20;;;;;;5124740;27;20016;-75
2023/11/09 07:33:49;;;;;;;6.60;6.00;;;9.10;95.30;;;;;;5103650;28;20031;-75
2023/11/09 07:36:17;;;;;;;8.27;6.03;;;9.10;95.90;;;;;;5124251;27;20015;-75
2023/11/09 07:38:46;;;;;;;7.65;6.90;;;9.20;81.90;;;;;;5103630;27;20031;-75
2023/11/09 07:41:11;;;;;;;8.55;7.18;;;9.20;84.30;;;;;;5104177;28;20023;-75
2023/11/09 07:43:37;;;;;;;11.00;8.00;;;9.20;86.50;;;;;;5123726;27;20027;-75
2023/11/09 07:46:03;;;;;;;9.57;8.20;;;9.20;89.90;;;;;;5121094;27;20104;-75
2023/11/09 07:48:29;;;;;;;12.65;8.40;;;9.30;91.30;;;;;;5123810;27;20045;-75
2023/11/09 07:50:55;;;;;;;13.35;9.70;;;9.30;95.50;;;;;;5123406;27;20023;-75
2023/11/09 07:53:21;;;;;;;12.48;8.80;;;9.40;87.20;;;;;;5104884;27;20034;-75
2023/11/09 07:55:50;;;;;;;8.88;7.68;;;9.40;79.10;;;;;;5102597;28;20027;-75
2023/11/09 07:58:17;;;;;;;11.48;7.22;;;9.40;76.90;;;;;;5099508;27;20032;-75
2023/11/09 08:00:43;;;;;;;8.85;7.78;;;9.40;72.20;;;;;;5122052;27;20522;-75
2023/11/09 08:03:09;;;;;;;10.63;7.63;;;9.40;80.70;;;;;;5121485;27;20020;-75
2023/11/09 08:05:41;;;;;;;10.00;6.70;;;9.50;86.10;;;;;;5123516;27;20031;-75
2023/11/09 08:08:10;;;;;;;;;;;9.60;85.20;;;;;;5118850;27;20501;-75
2023/11/09 08:10:40;;;;;;;9.68;6.65;;;9.60;90.70;;;;;;5120832;27;20375;-75
2023/11/09 08:13:07;;;;;;;12.52;7.85;;;9.60;69.10;;;;;;5120622;27;20058;-75
2023/11/09 08:15:35;;;;;;;12.07;7.22;;;9.70;57.10;;;;;;5102334;27;20056;-75
2023/11/09 08:18:02;;;;;;;11.32;8.32;;;9.70;52.70;;;;;;5122240;27;20024;-75
2023/11/09 08:20:29;;;;;;;12.00;8.27;;;9.80;48.60;;;;;;5120033;27;20079;-74
2023/11/09 08:22:56;;;;;;;10.60;8.48;;;9.80;53.00;;;;;;5120273;27;20016;-75
2023/11/09 08:25:23;;;;;;;13.57;9.05;;;9.90;62.00;;;;;;5104922;28;20387;-75
2023/11/09 08:27:52;;;;;;;9.85;8.85;;;9.90;55.40;;;;;;5097648;28;20027;-74
2023/11/09 08:30:20;;;;;;;11.90;8.63;;;10.00;49.30;;;;;;5098991;28;20031;-74
2023/11/09 08:32:49;;;;;;;14.13;9.07;;;10.00;53.90;;;;;;5113741;28;20019;-75
2023/11/09 08:35:15;;;;;;;10.32;9.30;;;10.10;60.60;;;;;;5118079;28;20027;-75
2023/11/09 08:37:41;;;;;;;10.20;9.07;;;10.10;61.90;;;;;;5118198;28;20035;-75
2023/11/09 08:40:18;;;;;;;10.73;9.48;;;10.10;75.60;;;;;;5101644;28;20019;-75
2023/11/09 08:42:50;;;;;;;10.95;9.20;;;10.10;74.30;;;;;;5118066;28;20422;-75
2023/11/09 08:45:17;;;;;;;14.27;10.68;;;10.20;73.30;;;;;;5116647;28;20028;-75
2023/11/09 08:47:46;;;;;;;14.90;11.18;;;10.20;54.00;;;;;;5113573;28;20053;-75
2023/11/09 08:50:13;;;;;;;12.50;10.43;;;10.20;50.10;;;;;;5117533;28;20046;-75
2023/11/09 08:52:43;;;;;;;13.93;11.30;;;10.30;52.30;;;;;;5098723;28;20055;-75
2023/11/09 08:55:09;;;;;;;13.40;9.45;;;10.30;46.70;;;;;;5112501;28;20027;-75
2023/11/09 08:57:37;;;;;;;18.95;10.45;;;10.30;41.10;;;;;;5119761;28;20478;-75
2023/11/09 09:00:11;;;;;;;13.57;10.77;;;10.40;45.70;;;;;;5121590;28;20024;-75
2023/11/09 09:02:45;;;;;;;13.27;9.77;;;10.40;46.00;;;;;;5116393;28;20489;-75
2023/11/09 09:05:15;;;;;;;16.98;11.20;;;10.40;50.10;;;;;;5121473;28;20378;-75
2023/11/09 09:07:45;;;;;;;13.05;10.40;;;10.40;48.60;;;;;;5094139;28;20106;-76
2023/11/09 09:10:12;;;;;;;14.40;9.70;;;10.50;33.00;;;;;;5099648;28;20647;-75
2023/11/09 09:12:38;;;;;;;11.40;9.15;;;10.50;1.00;;;;;;5119294;28;20424;-75
2023/11/09 09:15:12;;;;;;;16.38;9.20;;;10.50;1.00;;;;;;5120568;28;20121;-75
2023/11/09 09:17:41;;;;;;;12.35;9.75;;;10.50;1.00;;;;;;5115276;27;20051;-75
2023/11/09 09:20:11;;;;;;;19.63;11.00;;;10.60;1.40;;;;;;5104833;27;20031;-75
2023/11/09 09:22:40;;;;;;;14.20;9.70;;;10.60;1.00;;;;;;5125171;27;20069;-74
2023/11/09 09:25:10;;;;;;;14.27;10.70;;;10.70;3.30;;;;;;5125900;27;20023;-75
2023/11/09 09:27:46;;;;;;;18.77;9.25;;;10.70;1.00;;;;;;5125991;27;20020;-75
2023/11/09 09:30:21;;;;;;;14.20;10.95;;;10.80;1.00;;;;;;5124702;27;20019;-75
2023/11/09 09:32:48;;;;;;;14.60;11.13;;;10.80;1.00;;;;;;5108626;27;20110;-75
2023/11/09 09:35:14;;;;;;;13.60;11.00;;;10.90;1.00;;;;;;5105931;27;20402;-75
2023/11/09 09:37:42;;;;;;;15.32;11.82;;;10.90;1.00;;;;;;5127038;27;20691;-75
2023/11/09 09:40:20;;;;;;;18.40;12.82;;;10.90;14.80;;;;;;5107289;27;20450;-75
2023/11/09 09:42:50;;;;;;;18.02;12.45;;;11.00;12.30;;;;;;5120433;27;20521;-75
2023/11/09 09:45:19;;;;;;;18.10;13.10;;;11.00;6.40;;;;;;5125186;27;20038;-75
2023/11/09 09:47:50;;;;;;;17.67;12.20;;;11.10;5.80;;;;;;5108362;27;20011;-75
2023/11/09 09:50:26;;;;;;;22.52;13.30;;;11.10;12.70;;;;;;5119614;27;20023;-75
2023/11/09 09:52:56;;;;;;;15.13;11.77;;;11.20;20.50;;;;;;5107670;27;20047;-75
2023/11/09 09:55:24;;;;;;;15.55;13.02;;;11.30;15.00;;;;;;5101659;27;20024;-75
2023/11/09 09:57:51;;;;;;;16.73;13.57;;;11.30;1.00;;;;;;5106878;27;20033;-76
2023/11/09 10:00:27;;;;;;;22.55;13.98;;;11.40;18.10;;;;;;5123592;27;20027;-75
2023/11/09 10:02:54;;;;;;;15.82;12.88;;;11.50;20.70;;;;;;5102573;27;20027;-75
2023/11/09 10:05:23;;;;;;;16.08;12.55;;;11.50;21.70;;;;;;5124856;27;20023;-75
2023/11/09 10:08:04;;;;;;;16.75;12.00;;;11.50;8.70;;;;;;5126310;27;20543;-75
2023/11/09 10:10:52;;;;;;;19.88;13.13;;;11.50;1.00;;;;;;5123069;27;20059;-76
2023/11/09 10:13:20;;;;;;;15.32;12.40;;;11.50;1.00;;;;;;5123315;27;20016;-75
2023/11/09 10:15:54;;;;;;;17.50;12.55;;;11.50;7.80;;;;;;5123216;27;20058;-75
2023/11/09 10:18:25;;;;;;;13.32;11.40;;;11.50;1.00;;;;;;5121506;27;20049;-75
2023/11/09 10:20:56;;;;;;;16.15;11.80;;;11.60;1.00;;;;;;5124289;27;20023;-75
2023/11/09 10:23:22;;;;;;;13.03;11.23;;;11.60;1.00;;;;;;5104652;27;20024;-75
2023/11/09 10:25:48;;;;;;;16.70;11.07;;;11.60;1.00;;;;;;5124908;27;20038;-75
2023/11/09 10:28:14;;;;;;;11.52;10.30;;;11.60;1.00;;;;;;5124486;27;20502;-75
2023/11/09 10:30:44;;;;;;;16.05;10.60;;;11.60;1.00;;;;;;5107308;27;20104;-75
2023/11/09 10:33:11;;;;;;;11.65;10.25;;;11.70;1.00;;;;;;5119264;27;20020;-75
2023/11/09 10:35:38;;;;;;;13.77;11.20;;;11.70;1.00;;;;;;5124373;27;20064;-75
2023/11/09 10:38:08;;;;;;;17.63;11.57;;;11.70;1.00;;;;;;5106471;27;20023;-75
2023/11/09 10:40:35;;;;;;;19.17;10.98;;;11.80;1.00;;;;;;5122511;27;20027;-76
2023/11/09 10:43:00;;;;;;;17.40;11.98;;;11.90;1.00;;;;;;5121829;27;20024;-75
2023/11/09 10:45:30;;;;;;;19.50;10.73;;;11.90;1.00;;;;;;5107784;27;20505;-75
2023/11/09 10:47:59;;;;;;;15.73;10.57;;;11.90;1.00;;;;;;5104156;28;20048;-75
2023/11/09 10:50:27;;;;;;;16.70;11.65;;;12.00;1.00;;;;;;5100180;27;20359;-75
2023/11/09 10:52:56;;;;;;;15.82;11.40;;;12.00;1.00;;;;;;5123745;27;20047;-75
2023/11/09 10:55:23;;;;;;;15.82;10.60;;;12.20;1.00;;;;;;5124670;27;20028;-75
2023/11/09 10:57:50;;;;;;;14.70;11.45;;;12.30;1.00;;;;;;5103828;28;20055;-75
2023/11/09 11:00:26;;;;;;;12.60;10.60;;;12.40;1.00;;;;;;5124708;27;20031;-75
2023/11/09 11:03:04;;;;;;;12.75;10.07;;;12.50;1.00;;;;;;5121303;27;20386;-75
2023/11/09 11:05:30;;;;;;;13.93;9.75;;;12.50;1.00;;;;;;5102457;27;20499;-75
2023/11/09 11:08:05;;;;;;;12.63;9.07;;;12.60;1.00;;;;;;5122703;27;20513;-75
2023/11/09 11:10:32;;;;;;;13.07;10.05;;;12.60;1.00;;;;;;5118993;27;20023;-75
2023/11/09 11:13:09;;;;;;;14.10;9.43;;;12.60;1.00;;;;;;5121486;27;20023;-75
2023/11/09 11:16:10;;;;;;;11.57;9.73;;;12.60;1.00;;;;;;5125020;27;20390;-75
2023/11/09 11:19:13;;;;;;;13.43;8.93;;;12.70;1.00;;;;;;5070044;27;20076;-75
2023/11/09 11:22:04;;;;;;;14.45;8.73;;;12.80;1.00;;;;;;5124577;27;20171;-75
2023/11/09 11:25:03;;;;;;;17.10;11.90;;;12.90;1.00;;;;;;5118356;27;20471;-75
2023/11/09 11:27:37;;;;;;;15.95;10.55;;;12.90;99.90;;;;;;5121337;27;20035;-75
2023/11/09 11:30:25;;;;;;;23.27;18.27;;;12.90;1.00;;;;;;5103763;27;20031;-75
2023/11/09 11:32:55;;;;;;;10.68;8.98;;;12.90;99.90;;;;;;5096476;27;20391;-75
2023/11/09 11:35:34;;;;;;;11.43;8.80;;;12.90;99.90;;;;;;5104896;28;20051;-75
2023/11/09 11:38:15;;;;;;;12.32;10.68;;;12.90;1.00;;;;;;5117515;27;20270;-75
2023/11/09 11:40:45;;;;;;;13.13;10.65;;;12.90;1.00;;;;;;5120858;27;20406;-75
2023/11/09 11:43:11;;;;;;;17.80;12.88;;;12.90;1.00;;;;;;5114957;27;20067;-75
2023/11/09 11:45:39;;;;;;;14.88;12.00;;;12.90;1.00;;;;;;5123030;27;20031;-75
2023/11/09 11:48:12;;;;;;;16.35;13.00;;;12.90;1.00;;;;;;5106454;28;20446;-75
2023/11/09 11:50:39;;;;;;;14.23;12.73;;;12.90;1.00;;;;;;5116846;27;20007;-75
2023/11/09 11:53:12;;;;;;;20.38;13.82;;;12.90;1.00;;;;;;5122155;27;20039;-75
2023/11/09 11:55:38;;;;;;;18.60;13.88;;;12.90;1.00;;;;;;5102772;28;20057;-75
2023/11/09 11:58:05;;;;;;;21.10;14.23;;;12.90;1.00;;;;;;5117389;27;20028;-75
2023/11/09 12:00:40;;;;;;;18.50;14.02;;;12.90;1.00;;;;;;5105052;27;20380;-75
2023/11/09 12:03:16;;;;;;;26.77;13.45;;;12.90;1.00;;;;;;5102579;28;20072;-75
2023/11/09 12:05:43;;;;;;;26.40;14.02;;;12.90;1.00;;;;;;5120073;27;20260;-75
2023/11/09 12:08:13;;;;;;;18.27;13.77;;;13.00;1.00;;;;;;5121397;27;20479;-75
2023/11/09 12:10:42;;;;;;;15.90;13.23;;;12.90;1.00;;;;;;5105666;27;20110;-75
2023/11/09 12:13:09;;;;;;;18.48;13.25;;;12.90;1.00;;;;;;5121948;27;20026;-75
2023/11/09 12:15:35;;;;;;;17.85;13.05;;;12.90;1.00;;;;;;5103363;28;20036;-75
2023/11/09 12:18:02;;;;;;;17.00;13.35;;;12.90;1.00;;;;;;5123770;27;20165;-75
2023/11/09 12:20:31;;;;;;;14.30;12.73;;;12.90;1.00;;;;;;5116232;27;20030;-75
2023/11/09 12:22:59;;;;;;;21.73;13.55;;;12.80;1.00;;;;;;5103542;28;20027;-75
2023/11/09 12:25:28;;;;;;;24.38;14.82;;;12.90;1.00;;;;;;5102753;28;20023;-75
2023/11/09 12:27:57;;;;;;;17.77;13.63;;;12.90;1.00;;;;;;5123801;28;20023;-75
2023/11/09 12:30:23;;;;;;;17.13;13.55;;;12.90;1.00;;;;;;5103198;28;20020;-75
2023/11/09 12:32:53;;;;;;;19.67;14.18;;;12.90;1.00;;;;;;5103384;28;20035;-75
2023/11/09 12:35:19;;;;;;;16.88;12.73;;;12.90;1.00;;;;;;5123788;28;20027;-75
2023/11/09 12:37:49;;;;;;;24.38;14.80;;;12.90;1.00;;;;;;5119785;28;20367;-75
2023/11/09 12:40:17;;;;;;;18.83;14.20;;;12.90;1.00;;;;;;5122345;28;20110;-75
2023/11/09 12:42:44;;;;;;;22.75;13.75;;;12.90;1.00;;;;;;5102357;28;20110;-75
2023/11/09 12:45:11;;;;;;;20.63;14.30;;;12.90;1.00;;;;;;5121342;28;20031;-75
2023/11/09 12:47:39;;;;;;;21.73;14.38;;;12.90;1.00;;;;;;5101332;28;20019;-75
2023/11/09 12:50:06;;;;;;;19.00;14.57;;;12.90;1.00;;;;;;5123016;28;20418;-75
2023/11/09 12:52:33;;;;;;;17.92;14.13;;;12.90;1.00;;;;;;5124823;27;20049;-75
2023/11/09 12:55:06;;;;;;;22.55;14.73;;;12.90;1.00;;;;;;5102337;27;20239;-75
2023/11/09 12:57:35;;;;;;;21.95;15.13;;;12.90;1.00;;;;;;5107575;27;20115;-75
2023/11/09 13:00:04;;;;;;;21.27;15.35;;;12.90;1.00;;;;;;5127518;27;20049;-75
2023/11/09 13:02:42;;;;;;;22.70;14.90;;;12.90;1.00;;;;;;5086029;28;20426;-75
2023/11/09 13:05:09;;;;;;;16.85;13.55;;;12.90;1.00;;;;;;5104474;28;20474;-75